createdAt,value
2018-04-28T00:03:02.247Z,8.70
2018-04-28T00:07:55.740Z,8.70
2018-04-28T00:18:08.253Z,8.30
2018-04-28T00:22:59.883Z,8.20
2018-04-28T00:27:46.835Z,8.40
2018-04-28T00:32:30.225Z,8.50
2018-04-28T00:37:15.374Z,8.60
2018-04-28T00:41:58.699Z,8.60
2018-04-28T00:46:49.914Z,8.50
2018-04-28T00:51:34.024Z,8.50
2018-04-28T00:56:17.381Z,8.60
2018-04-28T01:01:03.918Z,8.90
2018-04-28T01:05:48.234Z,8.90
2018-04-28T01:10:31.575Z,9.10
2018-04-28T01:15:14.973Z,9.20
2018-04-28T01:19:59.897Z,9.40
2018-04-28T01:24:44.003Z,9.50
2018-04-28T01:29:28.160Z,9.70
2018-04-28T01:34:21.944Z,9.70
2018-04-28T01:39:26.336Z,9.70
2018-04-28T01:44:26.373Z,9.80
2018-04-28T01:54:48.812Z,9.80
2018-04-28T01:59:38.029Z,9.90
2018-04-28T02:04:22.098Z,10.10
2018-04-28T02:09:05.444Z,10.00
2018-04-28T02:13:54.417Z,9.90
2018-04-28T02:18:40.480Z,9.60
2018-04-28T02:23:33.548Z,9.60
2018-04-28T02:28:22.797Z,9.30
2018-04-28T02:33:06.493Z,9.10
2018-04-28T02:38:11.348Z,9.20
2018-04-28T02:43:01.495Z,9.70
2018-04-28T02:47:46.332Z,11.00
2018-04-28T02:52:40.280Z,11.00
2018-04-28T02:57:40.263Z,11.20
2018-04-28T03:02:29.155Z,11.40
2018-04-28T03:07:14.719Z,11.10
2018-04-28T03:12:07.616Z,11.10
2018-04-28T03:17:02.503Z,11.30
2018-04-28T03:21:48.164Z,11.40
2018-04-28T03:26:32.073Z,11.70
2018-04-28T03:36:45.492Z,12.00
2018-04-28T03:41:31.323Z,12.40
2018-04-28T03:46:35.975Z,12.40
2018-04-28T03:51:19.966Z,12.40
2018-04-28T03:56:06.834Z,12.30
2018-04-28T04:01:01.719Z,12.40
2018-04-28T04:05:46.507Z,12.50
2018-04-28T04:10:40.157Z,12.50
2018-04-28T04:15:30.050Z,12.60
2018-04-28T04:20:23.745Z,12.70
2018-04-28T04:25:23.467Z,13.00
2018-04-28T04:30:26.694Z,13.10
2018-04-28T04:35:09.817Z,13.00
2018-04-28T04:39:55.615Z,13.20
2018-04-28T04:44:43.311Z,13.20
2018-04-28T04:49:27.163Z,13.30
2018-04-28T04:54:14.138Z,13.40
2018-04-28T04:59:15.549Z,13.90
2018-04-28T05:04:20.182Z,13.80
2018-04-28T05:09:10.024Z,14.00
2018-04-28T05:14:32.197Z,14.50
2018-04-28T05:19:19.858Z,14.60
2018-04-28T05:24:14.615Z,14.60
2018-04-28T05:29:30.870Z,15.10
2018-04-28T05:34:34.598Z,15.00
2018-04-28T05:50:09.538Z,15.40
2018-04-28T05:54:54.927Z,15.40
2018-04-28T06:05:09.415Z,15.70
2018-04-28T06:10:12.011Z,15.80
2018-04-28T06:14:57.913Z,15.90
2018-04-28T06:20:01.780Z,15.70
2018-04-28T06:24:44.831Z,15.60
2018-04-28T06:29:27.899Z,15.60
2018-04-28T06:34:10.985Z,15.40
2018-04-28T06:38:54.859Z,15.50
2018-04-28T06:43:38.711Z,15.60
2018-04-28T06:48:21.765Z,15.60
2018-04-28T06:53:04.843Z,15.40
2018-04-28T06:57:47.977Z,15.60
2018-04-28T07:02:31.244Z,15.90
2018-04-28T07:07:15.344Z,16.30
2018-04-28T07:11:58.564Z,16.40
2018-04-28T07:16:41.663Z,16.80
2018-04-28T07:21:25.575Z,17.20
2018-04-28T07:26:08.757Z,17.20
2018-04-28T07:30:52.624Z,17.20
2018-04-28T07:35:35.769Z,17.20
2018-04-28T07:40:18.871Z,17.60
2018-04-28T07:45:02.775Z,17.70
2018-04-28T07:49:45.898Z,17.70
2018-04-28T07:54:29.043Z,17.90
2018-04-28T07:59:12.081Z,17.90
2018-04-28T08:03:55.215Z,18.00
2018-04-28T08:08:38.334Z,18.30
2018-04-28T08:13:22.291Z,18.70
2018-04-28T08:18:05.699Z,18.70
2018-04-28T08:22:49.546Z,19.30
2018-04-28T08:27:33.545Z,19.30
2018-04-28T08:32:16.661Z,19.30
2018-04-28T08:36:59.922Z,19.20
2018-04-28T08:41:43.844Z,19.70
2018-04-28T08:46:27.014Z,19.70
2018-04-28T08:51:10.127Z,20.00
2018-04-28T08:55:53.996Z,18.80
2018-04-28T09:00:57.777Z,18.80
2018-04-28T09:05:41.620Z,19.20
2018-04-28T09:10:25.487Z,18.90
2018-04-28T09:15:08.823Z,18.90
2018-04-28T09:19:52.898Z,19.20
2018-04-28T09:24:36.249Z,19.20
2018-04-28T09:29:19.609Z,19.60
2018-04-28T09:34:02.864Z,20.00
2018-04-28T09:38:46.281Z,20.50
2018-04-28T09:43:30.426Z,21.10
2018-04-28T09:48:13.729Z,21.00
2018-04-28T09:52:57.092Z,21.40
2018-04-28T09:57:40.490Z,20.90
2018-04-28T10:02:23.809Z,21.30
2018-04-28T10:07:07.171Z,21.60
2018-04-28T10:11:50.628Z,22.30
2018-04-28T10:16:33.961Z,22.40
2018-04-28T10:21:18.050Z,22.90
2018-04-28T10:26:01.394Z,22.90
2018-04-28T10:30:44.750Z,22.30
2018-04-28T10:35:28.055Z,21.50
2018-04-28T10:40:11.397Z,21.00
2018-04-28T10:44:54.744Z,21.40
2018-04-28T10:49:38.129Z,21.40
2018-04-28T10:54:22.232Z,21.50
2018-04-28T10:59:05.568Z,21.50
2018-04-28T11:03:48.911Z,22.00
2018-04-28T11:08:32.242Z,21.90
2018-04-28T11:13:15.625Z,21.90
2018-04-28T11:17:59.684Z,22.60
2018-04-28T11:22:43.110Z,22.50
2018-04-28T11:27:40.945Z,22.60
2018-04-28T11:32:26.022Z,23.30
2018-04-28T11:37:09.367Z,23.90
2018-04-28T11:41:53.450Z,24.90
2018-04-28T11:46:36.775Z,24.80
2018-04-28T11:51:21.632Z,25.10
2018-04-28T11:56:05.219Z,24.80
2018-04-28T12:00:50.292Z,25.30
2018-04-28T12:05:34.471Z,26.00
2018-04-28T12:10:17.787Z,26.00
2018-04-28T12:15:01.166Z,25.10
2018-04-28T12:19:44.467Z,24.40
2018-04-28T12:24:27.811Z,24.00
2018-04-28T12:29:11.992Z,23.20
2018-04-28T12:33:55.327Z,23.20
2018-04-28T12:38:38.605Z,22.80
2018-04-28T12:43:21.963Z,23.10
2018-04-28T12:48:05.339Z,23.20
2018-04-28T12:52:48.701Z,23.40
2018-04-28T12:57:32.112Z,24.20
2018-04-28T13:02:15.383Z,24.30
2018-04-28T13:06:58.699Z,24.90
2018-04-28T13:11:41.998Z,25.30
2018-04-28T13:16:26.080Z,24.20
2018-04-28T13:21:09.446Z,24.20
2018-04-28T13:25:52.795Z,24.10
2018-04-28T13:30:36.463Z,23.40
2018-04-28T13:35:19.840Z,23.90
2018-04-28T13:40:03.174Z,23.80
2018-04-28T13:44:47.316Z,24.50
2018-04-28T13:49:30.815Z,24.50
2018-04-28T13:54:14.165Z,24.20
2018-04-28T13:58:57.546Z,24.60
2018-04-28T14:03:40.872Z,25.10
2018-04-28T14:08:24.233Z,25.40
2018-04-28T14:13:07.624Z,26.20
2018-04-28T14:17:50.995Z,26.50
2018-04-28T14:22:34.313Z,25.80
2018-04-28T14:27:17.663Z,25.70
2018-04-28T14:32:01.024Z,25.90
2018-04-28T14:36:44.412Z,25.80
2018-04-28T14:41:29.515Z,25.30
2018-04-28T14:46:12.843Z,25.30
2018-04-28T14:50:56.171Z,25.20
2018-04-28T14:55:39.499Z,24.90
2018-04-28T15:00:22.911Z,24.80
2018-04-28T15:05:06.234Z,24.60
2018-04-28T15:09:49.601Z,24.80
2018-04-28T15:14:32.911Z,25.10
2018-04-28T15:19:16.275Z,25.50
2018-04-28T15:23:59.700Z,26.00
2018-04-28T15:28:43.001Z,26.30
2018-04-28T15:33:26.354Z,26.80
2018-04-28T15:38:09.690Z,26.80
2018-04-28T15:42:53.027Z,26.40
2018-04-28T15:47:36.385Z,26.00
2018-04-28T15:52:19.688Z,25.30
2018-04-28T15:57:03.803Z,26.00
2018-04-28T16:01:47.889Z,26.40
2018-04-28T16:06:31.428Z,26.30
2018-04-28T16:11:14.748Z,25.90
2018-04-28T16:15:58.113Z,25.50
2018-04-28T16:20:41.442Z,24.70
2018-04-28T16:25:24.820Z,24.00
2018-04-28T16:30:08.894Z,23.40
2018-04-28T16:34:52.264Z,23.30
2018-04-28T16:39:35.581Z,23.50
2018-04-28T16:44:18.950Z,23.70
2018-04-28T16:49:02.250Z,24.10
2018-04-28T16:53:45.561Z,24.40
2018-04-28T16:58:29.728Z,23.60
2018-04-28T17:03:13.070Z,23.60
2018-04-28T17:07:57.190Z,22.50
2018-04-28T17:12:40.535Z,22.50
2018-04-28T17:17:35.495Z,21.30
2018-04-28T17:22:18.888Z,20.40
2018-04-28T17:27:02.347Z,20.00
2018-04-28T17:31:45.668Z,19.60
2018-04-28T17:36:29.019Z,19.30
2018-04-28T17:41:12.330Z,19.20
2018-04-28T17:45:55.696Z,19.10
2018-04-28T17:50:39.790Z,18.50
2018-04-28T17:55:23.888Z,18.10
2018-04-28T18:00:07.203Z,18.10
2018-04-28T18:04:51.292Z,17.40
2018-04-28T18:09:34.615Z,17.40
2018-04-28T18:14:18.019Z,17.30
2018-04-28T18:19:01.393Z,17.10
2018-04-28T18:23:48.854Z,16.90
2018-04-28T18:28:37.660Z,16.60
2018-04-28T18:33:54.905Z,16.40
2018-04-28T18:38:52.959Z,16.10
2018-04-28T18:43:42.522Z,16.10
2018-04-28T18:48:32.422Z,16.10
2018-04-28T18:58:33.667Z,15.70
2018-04-28T19:03:29.576Z,15.40
2018-04-28T19:08:15.108Z,15.40
2018-04-28T19:12:58.662Z,15.40
2018-04-28T19:17:43.532Z,15.20
2018-04-28T19:22:40.905Z,15.30
2018-04-28T19:32:23.656Z,15.70
2018-04-28T19:37:21.956Z,15.70
2018-04-28T19:47:22.866Z,15.60
2018-04-28T19:52:07.506Z,15.40
2018-04-28T19:56:55.833Z,15.20
2018-04-28T20:01:39.332Z,15.10
2018-04-28T20:06:22.678Z,15.00
2018-04-28T20:11:06.258Z,15.00
2018-04-28T20:15:50.388Z,15.00
2018-04-28T20:20:33.717Z,14.90
2018-04-28T20:25:21.642Z,14.90
2018-04-28T20:30:05.090Z,14.80
2018-04-28T20:34:48.362Z,14.80
2018-04-28T20:39:32.443Z,14.40
2018-04-28T20:44:15.788Z,14.40
2018-04-28T20:48:59.303Z,14.20
2018-04-28T20:53:43.447Z,13.80
2018-04-28T20:58:27.555Z,13.50
2018-04-28T21:03:10.879Z,13.50
2018-04-28T21:07:54.215Z,13.40
2018-04-28T21:12:37.528Z,13.30
2018-04-28T21:17:20.915Z,13.80
2018-04-28T21:22:04.270Z,13.90
2018-04-28T21:26:47.611Z,14.00
2018-04-28T21:31:30.946Z,14.00
2018-04-28T21:36:15.135Z,13.70
2018-04-28T21:40:58.531Z,13.70
2018-04-28T21:45:41.827Z,13.70
2018-04-28T21:50:25.156Z,13.80
2018-04-28T21:55:08.472Z,13.90
2018-04-28T21:59:51.790Z,13.70
2018-04-28T22:04:35.107Z,13.50
2018-04-28T22:09:18.447Z,13.20
2018-04-28T22:14:02.495Z,12.80
2018-04-28T22:18:45.858Z,12.80
2018-04-28T22:23:29.203Z,13.00
2018-04-28T22:28:12.484Z,13.20
2018-04-28T22:32:55.775Z,13.30
2018-04-28T22:37:39.964Z,13.20
2018-04-28T22:42:24.047Z,12.80
2018-04-28T22:47:07.422Z,12.80
2018-04-28T22:51:50.771Z,12.70
2018-04-28T22:56:34.309Z,12.70
2018-04-28T23:01:17.614Z,12.60
2018-04-28T23:06:00.986Z,12.40
2018-04-28T23:10:44.290Z,12.20
2018-04-28T23:15:27.617Z,12.00
2018-04-28T23:20:10.968Z,11.90
2018-04-28T23:24:54.279Z,11.80
2018-04-28T23:29:37.635Z,11.70
2018-04-28T23:34:20.973Z,11.50
2018-04-28T23:39:05.175Z,11.40
2018-04-28T23:43:48.547Z,11.30
2018-04-28T23:48:32.665Z,11.20
2018-04-28T23:53:16.007Z,11.20
2018-04-28T23:57:59.373Z,11.20
